createdAt,value
2022-08-07T00:00:36.265Z,16.13
2022-08-07T00:03:09.074Z,15.99
2022-08-07T00:05:36.212Z,15.69
2022-08-07T00:08:05.067Z,15.64
2022-08-07T00:10:35.520Z,15.67
2022-08-07T00:13:09.600Z,15.51
2022-08-07T00:15:52.111Z,15.74
2022-08-07T00:18:24.465Z,15.71
2022-08-07T00:20:56.840Z,15.46
2022-08-07T00:23:24.762Z,15.69
2022-08-07T00:26:00.210Z,15.64
2022-08-07T00:28:34.100Z,15.48
2022-08-07T00:31:12.791Z,15.54
2022-08-07T00:33:43.369Z,15.39
2022-08-07T00:36:14.231Z,15.21
2022-08-07T00:38:40.876Z,15.26
2022-08-07T00:41:09.887Z,15.30
2022-08-07T00:43:59.553Z,15.31
2022-08-07T00:46:27.785Z,15.30
2022-08-07T00:48:54.347Z,15.43
2022-08-07T00:51:21.123Z,15.47
2022-08-07T00:53:50.600Z,15.41
2022-08-07T00:56:23.276Z,15.29
2022-08-07T00:58:57.304Z,15.37
2022-08-07T01:01:24.387Z,15.28
2022-08-07T01:03:56.479Z,15.35
2022-08-07T01:06:28.426Z,15.39
2022-08-07T01:08:55.653Z,15.23
2022-08-07T01:12:10.099Z,15.02
2022-08-07T01:14:10.204Z,15.02
2022-08-07T01:16:37.550Z,15.09
2022-08-07T01:19:18.178Z,14.96
2022-08-07T01:21:47.019Z,15.07
2022-08-07T01:24:14.522Z,15.12
2022-08-07T01:26:51.723Z,14.94
2022-08-07T01:29:19.777Z,14.95
2022-08-07T01:31:48.665Z,15.06
2022-08-07T01:34:17.740Z,14.93
2022-08-07T01:36:52.744Z,14.93
2022-08-07T01:39:40.922Z,14.94
2022-08-07T01:42:39.922Z,14.92
2022-08-07T01:45:05.383Z,15.11
2022-08-07T01:48:20.400Z,15.01
2022-08-07T01:50:28.846Z,15.01
2022-08-07T01:52:57.719Z,15.02
2022-08-07T01:55:55.338Z,15.13
2022-08-07T01:58:29.678Z,14.89
2022-08-07T02:01:09.555Z,14.98
2022-08-07T02:04:07.460Z,14.85
2022-08-07T02:06:36.030Z,14.85
2022-08-07T02:09:04.897Z,14.83
2022-08-07T02:12:03.267Z,14.73
2022-08-07T02:14:36.263Z,14.65
2022-08-07T02:17:07.761Z,14.72
2022-08-07T02:20:04.768Z,14.64
2022-08-07T02:22:25.771Z,14.52
2022-08-07T02:24:55.833Z,14.50
2022-08-07T02:27:25.050Z,14.67
2022-08-07T02:29:55.004Z,14.59
2022-08-07T02:32:23.253Z,14.43
2022-08-07T02:34:51.484Z,14.33
2022-08-07T02:37:19.579Z,14.51
2022-08-07T02:40:02.053Z,14.43
2022-08-07T02:42:35.504Z,14.59
2022-08-07T02:45:57.393Z,14.44
2022-08-07T02:47:51.318Z,14.61
2022-08-07T02:50:18.807Z,14.41
2022-08-07T02:52:54.669Z,14.39
2022-08-07T02:56:04.105Z,14.30
2022-08-07T02:58:21.937Z,14.25
2022-08-07T03:00:57.318Z,14.52
2022-08-07T03:03:26.593Z,14.32
2022-08-07T03:06:16.615Z,14.46
2022-08-07T03:08:52.688Z,14.32
2022-08-07T03:11:20.188Z,14.15
2022-08-07T03:13:57.455Z,14.24
2022-08-07T03:16:28.565Z,14.07
2022-08-07T03:18:59.129Z,13.95
2022-08-07T03:21:26.567Z,14.03
2022-08-07T03:24:21.130Z,13.91
2022-08-07T03:26:57.835Z,13.88
2022-08-07T03:29:31.627Z,13.81
2022-08-07T03:32:04.137Z,13.83
2022-08-07T03:34:33.141Z,13.83
2022-08-07T03:37:11.967Z,13.76
2022-08-07T03:39:45.823Z,13.78
2022-08-07T03:42:27.126Z,13.72
2022-08-07T03:44:58.057Z,13.80
2022-08-07T03:47:27.796Z,13.68
2022-08-07T03:49:56.507Z,13.62
2022-08-07T03:52:27.335Z,13.57
2022-08-07T03:55:07.060Z,13.57
2022-08-07T03:58:33.329Z,13.66
2022-08-07T04:00:30.815Z,13.70
2022-08-07T04:03:04.268Z,13.75
2022-08-07T04:05:40.953Z,13.68
2022-08-07T04:08:11.607Z,13.63
2022-08-07T04:10:40.161Z,13.60
2022-08-07T04:13:15.212Z,13.60
2022-08-07T04:15:43.268Z,13.71
2022-08-07T04:18:56.347Z,13.61
2022-08-07T04:21:01.139Z,13.64
2022-08-07T04:23:43.653Z,13.58
2022-08-07T04:26:16.953Z,13.68
2022-08-07T04:28:48.707Z,13.82
2022-08-07T04:31:19.726Z,13.78
2022-08-07T04:33:47.273Z,13.99
2022-08-07T04:36:22.873Z,13.81
2022-08-07T04:38:53.176Z,13.84
2022-08-07T04:41:19.772Z,13.84
2022-08-07T04:44:12.365Z,13.84
2022-08-07T04:47:07.823Z,13.93
2022-08-07T04:49:57.746Z,13.98
2022-08-07T04:52:33.058Z,13.95
2022-08-07T04:55:15.162Z,14.34
2022-08-07T04:58:16.149Z,14.64
2022-08-07T05:01:20.558Z,15.01
2022-08-07T05:04:07.582Z,15.32
2022-08-07T05:06:43.469Z,15.75
2022-08-07T05:09:42.895Z,16.07
2022-08-07T05:12:13.311Z,16.11
2022-08-07T05:14:54.845Z,16.17
2022-08-07T05:17:52.291Z,16.07
2022-08-07T05:20:21.337Z,16.65
2022-08-07T05:22:51.629Z,16.79
2022-08-07T05:25:25.877Z,17.02
2022-08-07T05:28:19.969Z,16.74
2022-08-07T05:30:48.809Z,17.17
2022-08-07T05:33:18.060Z,17.36
2022-08-07T05:35:50.666Z,17.59
2022-08-07T05:39:01.330Z,17.96
2022-08-07T05:41:05.499Z,18.92
2022-08-07T05:43:50.215Z,18.64
2022-08-07T05:46:30.510Z,19.32
2022-08-07T05:48:59.581Z,19.10
2022-08-07T05:51:26.438Z,19.00
2022-08-07T05:54:09.273Z,18.84
2022-08-07T05:56:47.821Z,19.48
2022-08-07T05:59:19.409Z,19.69
2022-08-07T06:01:50.120Z,19.62
2022-08-07T06:04:19.704Z,20.24
2022-08-07T06:06:47.872Z,20.57
2022-08-07T06:09:45.289Z,20.00
2022-08-07T06:12:10.687Z,20.73
2022-08-07T06:14:43.081Z,20.36
2022-08-07T06:17:17.895Z,20.82
2022-08-07T06:19:52.129Z,21.20
2022-08-07T06:22:36.870Z,21.58
2022-08-07T06:25:06.601Z,21.53
2022-08-07T06:28:00.655Z,20.87
2022-08-07T06:30:32.411Z,22.10
2022-08-07T06:33:04.304Z,21.89
2022-08-07T06:35:45.754Z,21.71
2022-08-07T06:38:20.394Z,22.65
2022-08-07T06:40:50.867Z,22.60
2022-08-07T06:43:22.425Z,22.81
2022-08-07T06:45:50.710Z,23.02
2022-08-07T06:48:25.079Z,24.13
2022-08-07T06:50:54.091Z,24.74
2022-08-07T06:55:27.236Z,26.43
2022-08-07T06:56:15.335Z,24.41
2022-08-07T07:00:12.029Z,24.95
2022-08-07T07:01:42.172Z,25.19
2022-08-07T07:04:28.310Z,25.01
2022-08-07T07:07:02.225Z,26.58
2022-08-07T07:09:30.841Z,25.62
2022-08-07T07:12:07.890Z,27.02
2022-08-07T07:14:58.089Z,25.76
2022-08-07T07:17:38.768Z,24.56
2022-08-07T07:20:12.639Z,25.18
2022-08-07T07:24:08.579Z,25.85
2022-08-07T07:26:33.237Z,25.46
2022-08-07T07:28:42.560Z,25.31
2022-08-07T07:31:22.803Z,27.67
2022-08-07T07:33:57.188Z,27.57
2022-08-07T07:36:32.278Z,27.23
2022-08-07T07:39:01.377Z,26.87
2022-08-07T07:41:30.871Z,27.05
2022-08-07T07:44:25.861Z,27.61
2022-08-07T07:47:04.241Z,26.78
2022-08-07T07:50:33.401Z,26.36
2022-08-07T07:52:30.885Z,26.97
2022-08-07T07:54:59.292Z,26.52
2022-08-07T07:57:51.843Z,27.54
2022-08-07T08:00:20.998Z,27.82
2022-08-07T08:03:05.020Z,30.85
2022-08-07T08:05:54.428Z,27.83
2022-08-07T08:08:34.624Z,29.03
2022-08-07T08:11:05.889Z,28.99
2022-08-07T08:13:53.931Z,29.81
2022-08-07T08:16:29.857Z,28.31
2022-08-07T08:19:00.390Z,29.94
2022-08-07T08:22:02.995Z,28.80
2022-08-07T08:24:57.308Z,29.34
2022-08-07T08:27:44.052Z,30.25
2022-08-07T08:30:26.901Z,31.89
2022-08-07T08:32:56.853Z,33.58
2022-08-07T08:35:28.533Z,31.29
2022-08-07T08:38:03.610Z,31.31
2022-08-07T08:40:43.869Z,33.65
2022-08-07T08:43:41.752Z,32.51
2022-08-07T08:46:32.172Z,33.96
2022-08-07T08:49:12.841Z,31.54
2022-08-07T08:52:13.434Z,33.78
2022-08-07T08:54:47.249Z,32.88
2022-08-07T08:57:34.954Z,32.80
2022-08-07T09:00:09.350Z,32.74
2022-08-07T09:03:04.038Z,31.38
2022-08-07T09:06:06.994Z,30.58
2022-08-07T09:09:09.575Z,32.54
2022-08-07T09:12:30.326Z,32.84
2022-08-07T09:16:23.995Z,31.74
2022-08-07T09:18:34.983Z,31.49
2022-08-07T09:21:57.670Z,32.64
2022-08-07T09:24:59.605Z,32.55
2022-08-07T09:28:00.563Z,34.18
2022-08-07T09:30:54.690Z,36.62
2022-08-07T09:33:57.033Z,34.92
2022-08-07T09:36:55.444Z,33.95
2022-08-07T09:39:54.506Z,33.24
2022-08-07T09:42:25.097Z,31.30
2022-08-07T09:47:50.721Z,32.73
2022-08-07T09:48:50.209Z,32.84
2022-08-07T09:52:16.113Z,35.43
2022-08-07T09:54:20.433Z,32.90
2022-08-07T09:57:15.425Z,32.64
2022-08-07T10:00:01.290Z,37.17
2022-08-07T10:03:08.103Z,38.00
2022-08-07T10:06:00.015Z,35.39
2022-08-07T10:08:51.313Z,32.15
2022-08-07T10:12:01.886Z,33.35
2022-08-07T10:14:47.401Z,35.07
2022-08-07T10:18:01.850Z,33.19
2022-08-07T10:20:39.344Z,35.90
2022-08-07T10:24:05.222Z,37.09
2022-08-07T10:26:51.847Z,33.57
2022-08-07T10:29:46.055Z,34.37
2022-08-07T10:32:51.027Z,34.29
2022-08-07T10:35:55.426Z,32.62
2022-08-07T10:38:47.842Z,30.40
2022-08-07T10:41:46.588Z,34.29
2022-08-07T10:44:38.486Z,33.03
2022-08-07T10:47:26.853Z,34.83
2022-08-07T10:50:16.869Z,33.72
2022-08-07T10:53:09.061Z,33.13
2022-08-07T10:55:42.943Z,34.53
2022-08-07T10:58:40.782Z,31.23
2022-08-07T11:01:35.658Z,30.79
2022-08-07T11:04:46.194Z,33.10
2022-08-07T11:07:58.734Z,31.64
2022-08-07T11:10:34.558Z,31.54
2022-08-07T11:13:42.273Z,35.40
2022-08-07T11:16:19.522Z,33.31
2022-08-07T11:18:54.371Z,34.68
2022-08-07T11:21:42.827Z,33.57
2022-08-07T11:24:39.135Z,32.15
2022-08-07T11:27:20.641Z,32.50
2022-08-07T11:30:17.607Z,34.48
2022-08-07T11:32:58.647Z,35.83
2022-08-07T11:35:33.657Z,33.16
2022-08-07T11:38:21.458Z,31.79
2022-08-07T11:41:03.373Z,32.12
2022-08-07T11:43:54.449Z,30.60
2022-08-07T11:46:36.769Z,30.94
2022-08-07T11:49:50.657Z,33.71
2022-08-07T11:52:28.959Z,32.50
2022-08-07T11:56:09.405Z,32.90
2022-08-07T11:58:20.695Z,31.24
2022-08-07T12:01:59.498Z,31.32
2022-08-07T12:05:04.190Z,32.75
2022-08-07T12:07:53.764Z,32.18
2022-08-07T12:11:21.573Z,33.40
2022-08-07T12:13:52.450Z,31.80
2022-08-07T12:16:30.127Z,31.50
2022-08-07T12:19:56.531Z,31.28
2022-08-07T12:22:37.310Z,32.12
2022-08-07T12:26:05.653Z,30.71
2022-08-07T12:28:49.722Z,31.51
2022-08-07T12:31:52.679Z,32.20
2022-08-07T12:34:19.385Z,30.43
2022-08-07T12:36:49.595Z,30.04
2022-08-07T12:39:42.264Z,30.58
2022-08-07T12:42:08.827Z,31.93
2022-08-07T12:44:40.555Z,32.64
2022-08-07T12:47:30.417Z,31.47
2022-08-07T12:50:39.450Z,31.19
2022-08-07T12:52:56.605Z,33.15
2022-08-07T12:56:02.110Z,32.84
2022-08-07T12:58:35.144Z,31.23
2022-08-07T13:01:32.485Z,30.69
2022-08-07T13:04:34.650Z,30.48
2022-08-07T13:08:12.512Z,31.22
2022-08-07T13:11:02.026Z,33.89
2022-08-07T13:13:52.456Z,34.28
2022-08-07T13:16:56.301Z,31.42
2022-08-07T13:19:50.551Z,31.55
2022-08-07T13:22:30.693Z,31.42
2022-08-07T13:25:02.498Z,30.42
2022-08-07T13:28:13.052Z,30.06
2022-08-07T13:30:49.168Z,30.54
2022-08-07T13:34:33.919Z,30.20
2022-08-07T13:36:54.373Z,31.00
2022-08-07T13:40:34.184Z,30.52
2022-08-07T13:42:21.423Z,31.67
2022-08-07T13:45:11.534Z,30.81
2022-08-07T13:48:06.734Z,30.23
2022-08-07T13:50:35.898Z,31.07
2022-08-07T13:53:21.880Z,31.10
2022-08-07T13:55:54.891Z,29.65
2022-08-07T13:58:56.208Z,29.17
2022-08-07T14:01:26.245Z,29.00
2022-08-07T14:04:05.430Z,28.12
2022-08-07T14:06:39.005Z,28.17
2022-08-07T14:09:07.990Z,28.03
2022-08-07T14:11:53.935Z,27.84
2022-08-07T14:14:42.164Z,27.56
2022-08-07T14:17:51.386Z,27.80
2022-08-07T14:20:40.285Z,27.55
2022-08-07T14:23:01.667Z,27.84
2022-08-07T14:25:39.297Z,27.94
2022-08-07T14:28:13.536Z,28.41
2022-08-07T14:30:52.034Z,28.06
2022-08-07T14:33:22.353Z,28.21
2022-08-07T14:35:55.701Z,27.95
2022-08-07T14:38:31.304Z,28.01
2022-08-07T14:41:14.620Z,27.86
2022-08-07T14:43:55.257Z,27.97
2022-08-07T14:46:31.034Z,27.99
2022-08-07T14:49:55.797Z,28.10
2022-08-07T14:52:02.813Z,27.85
2022-08-07T14:54:35.808Z,27.40
2022-08-07T14:57:14.435Z,27.15
2022-08-07T15:00:03.225Z,27.87
2022-08-07T15:02:34.464Z,27.74
2022-08-07T15:05:02.395Z,27.86
2022-08-07T15:07:51.371Z,27.66
2022-08-07T15:13:23.322Z,27.60
2022-08-07T15:15:59.737Z,28.00
2022-08-07T15:18:40.202Z,28.00
2022-08-07T15:21:58.903Z,27.77
2022-08-07T15:25:14.676Z,27.58
2022-08-07T15:27:03.538Z,27.50
2022-08-07T15:32:39.424Z,27.68
2022-08-07T15:35:12.379Z,27.61
2022-08-07T15:38:17.921Z,27.87
2022-08-07T15:40:34.992Z,27.74
2022-08-07T15:43:53.013Z,27.45
2022-08-07T15:46:37.205Z,27.29
2022-08-07T15:49:13.046Z,27.32
2022-08-07T15:54:34.530Z,27.33
2022-08-07T15:57:04.933Z,27.26
2022-08-07T15:59:39.008Z,27.31
2022-08-07T16:02:22.488Z,27.27
2022-08-07T16:04:59.970Z,27.24
2022-08-07T16:08:29.018Z,26.98
2022-08-07T16:10:22.754Z,27.06
2022-08-07T16:13:57.954Z,27.01
2022-08-07T16:16:48.418Z,27.06
2022-08-07T16:19:42.297Z,27.09
2022-08-07T16:22:55.346Z,26.93
2022-08-07T16:25:53.946Z,26.89
2022-08-07T16:30:06.405Z,26.96
2022-08-07T16:31:57.722Z,26.89
2022-08-07T16:34:48.672Z,26.79
2022-08-07T16:38:06.471Z,26.68
2022-08-07T16:40:30.748Z,26.82
2022-08-07T16:44:06.182Z,26.86
2022-08-07T16:47:04.433Z,26.69
2022-08-07T16:50:26.818Z,26.69
2022-08-07T16:52:52.484Z,26.43
2022-08-07T16:55:47.088Z,26.29
2022-08-07T16:58:20.063Z,26.23
2022-08-07T17:00:59.829Z,26.32
2022-08-07T17:03:58.038Z,26.46
2022-08-07T17:06:29.269Z,26.27
2022-08-07T17:09:14.341Z,26.20
2022-08-07T17:12:35.887Z,26.26
2022-08-07T17:15:18.247Z,26.22
2022-08-07T17:17:47.919Z,26.12
2022-08-07T17:20:29.684Z,25.99
2022-08-07T17:23:08.538Z,25.90
2022-08-07T17:26:05.243Z,25.93
2022-08-07T17:30:14.950Z,25.83
2022-08-07T17:32:11.334Z,25.77
2022-08-07T17:35:50.146Z,25.69
2022-08-07T17:38:05.482Z,25.73
2022-08-07T17:42:00.707Z,25.60
2022-08-07T17:44:02.836Z,25.64
2022-08-07T17:47:02.329Z,25.62
2022-08-07T17:49:44.749Z,25.54
2022-08-07T17:52:46.272Z,25.43
2022-08-07T17:55:55.782Z,25.30
2022-08-07T17:58:06.816Z,25.28
2022-08-07T18:00:48.788Z,25.24
2022-08-07T18:04:07.190Z,25.30
2022-08-07T18:06:38.445Z,25.27
2022-08-07T18:09:08.652Z,25.17
2022-08-07T18:12:20.001Z,25.14
2022-08-07T18:14:44.903Z,25.07
2022-08-07T18:18:44.901Z,24.98
2022-08-07T18:21:05.947Z,24.77
2022-08-07T18:23:42.790Z,24.73
2022-08-07T18:26:15.127Z,24.65
2022-08-07T18:29:02.601Z,24.49
2022-08-07T18:31:54.772Z,24.37
2022-08-07T18:35:00.767Z,24.27
2022-08-07T18:38:56.623Z,24.11
2022-08-07T18:41:16.776Z,23.97
2022-08-07T18:43:57.732Z,23.74
2022-08-07T18:46:42.889Z,23.73
2022-08-07T18:50:29.955Z,23.64
2022-08-07T18:52:54.172Z,23.58
2022-08-07T18:56:00.401Z,23.48
2022-08-07T18:58:52.205Z,23.31
2022-08-07T19:02:20.106Z,23.07
2022-08-07T19:04:59.619Z,23.07
2022-08-07T19:07:35.567Z,23.00
2022-08-07T19:10:18.295Z,22.89
2022-08-07T19:13:11.769Z,22.72
2022-08-07T19:16:43.607Z,22.73
2022-08-07T19:19:31.787Z,22.66
2022-08-07T19:22:30.748Z,22.65
2022-08-07T19:25:06.840Z,22.58
2022-08-07T19:28:29.121Z,22.50
2022-08-07T19:31:04.681Z,22.42
2022-08-07T19:33:34.777Z,22.26
2022-08-07T19:36:03.617Z,22.38
2022-08-07T19:38:33.822Z,22.33
2022-08-07T19:41:01.176Z,22.27
2022-08-07T19:43:44.191Z,22.22
2022-08-07T19:46:26.378Z,22.13
2022-08-07T19:49:02.856Z,22.21
2022-08-07T19:51:51.723Z,22.09
2022-08-07T19:54:32.021Z,21.97
2022-08-07T19:58:01.299Z,21.97
2022-08-07T19:59:59.416Z,21.87
2022-08-07T20:02:33.370Z,21.98
2022-08-07T20:05:07.625Z,21.83
2022-08-07T20:07:47.692Z,21.90
2022-08-07T20:10:36.212Z,21.67
2022-08-07T20:13:22.664Z,21.72
2022-08-07T20:15:53.875Z,21.83
2022-08-07T20:18:32.205Z,21.66
2022-08-07T20:21:02.250Z,21.76
2022-08-07T20:23:40.766Z,21.71
2022-08-07T20:26:10.923Z,21.64
2022-08-07T20:28:39.838Z,21.56
2022-08-07T20:31:21.399Z,21.56
2022-08-07T20:33:56.486Z,21.55
2022-08-07T20:36:27.075Z,21.41
2022-08-07T20:39:00.534Z,21.44
2022-08-07T20:41:37.923Z,21.47
2022-08-07T20:44:10.384Z,21.23
2022-08-07T20:46:44.640Z,21.11
2022-08-07T20:49:58.916Z,21.11
2022-08-07T20:52:14.099Z,21.22
2022-08-07T20:54:53.868Z,20.95
2022-08-07T20:57:24.514Z,20.90
2022-08-07T21:00:06.605Z,20.85
2022-08-07T21:02:58.942Z,20.68
2022-08-07T21:05:52.759Z,20.62
2022-08-07T21:08:37.851Z,20.58
2022-08-07T21:11:10.927Z,20.55
2022-08-07T21:14:16.148Z,20.62
2022-08-07T21:16:56.469Z,20.44
2022-08-07T21:19:32.407Z,20.57
2022-08-07T21:22:19.442Z,20.69
2022-08-07T21:24:47.721Z,20.54
2022-08-07T21:27:24.706Z,20.68
2022-08-07T21:30:03.891Z,20.45
2022-08-07T21:32:47.429Z,20.40
2022-08-07T21:36:05.741Z,20.48
2022-08-07T21:38:44.570Z,20.43
2022-08-07T21:41:26.766Z,20.56
2022-08-07T21:44:28.333Z,20.29
2022-08-07T21:47:02.732Z,20.30
2022-08-07T21:50:08.186Z,20.19
2022-08-07T21:52:47.425Z,20.21
2022-08-07T21:55:30.784Z,20.09
2022-08-07T21:58:32.262Z,19.90
2022-08-07T22:02:07.072Z,19.88
2022-08-07T22:04:24.995Z,19.92
2022-08-07T22:07:01.993Z,19.86
2022-08-07T22:09:53.641Z,19.78
2022-08-07T22:12:31.396Z,19.72
2022-08-07T22:15:03.631Z,19.62
2022-08-07T22:17:56.906Z,19.61
2022-08-07T22:20:41.716Z,19.57
2022-08-07T22:23:23.980Z,19.51
2022-08-07T22:26:04.936Z,19.45
2022-08-07T22:28:58.494Z,19.53
2022-08-07T22:31:59.292Z,19.51
2022-08-07T22:34:57.297Z,19.49
2022-08-07T22:38:03.156Z,19.49
2022-08-07T22:40:53.222Z,19.39
2022-08-07T22:43:42.240Z,19.34
2022-08-07T22:47:01.859Z,19.35
2022-08-07T22:49:33.803Z,19.53
2022-08-07T22:52:43.413Z,19.36
2022-08-07T22:55:32.614Z,19.40
2022-08-07T22:58:38.184Z,19.29
2022-08-07T23:01:17.708Z,19.04
2022-08-07T23:04:20.721Z,19.07
2022-08-07T23:07:00.103Z,19.12
2022-08-07T23:10:04.905Z,19.05
2022-08-07T23:12:49.430Z,18.99
2022-08-07T23:16:05.669Z,19.02
2022-08-07T23:19:15.523Z,19.05
2022-08-07T23:21:54.868Z,18.87
2022-08-07T23:24:45.651Z,18.86
2022-08-07T23:28:22.948Z,18.99
2022-08-07T23:31:05.778Z,18.88
2022-08-07T23:34:24.223Z,18.78
2022-08-07T23:36:36.362Z,18.77
2022-08-07T23:39:41.275Z,18.80
2022-08-07T23:42:08.082Z,18.83
2022-08-07T23:44:59.255Z,18.65
2022-08-07T23:47:46.526Z,18.58
2022-08-07T23:50:54.443Z,18.57
2022-08-07T23:53:51.401Z,18.58
2022-08-07T23:56:54.006Z,18.41
